createdAt,value
2023-05-04T00:00:01.376Z,7.20
2023-05-04T00:02:34.410Z,8.98
2023-05-04T00:05:08.238Z,6.55
2023-05-04T00:07:39.332Z,9.63
2023-05-04T00:10:10.790Z,8.32
2023-05-04T00:12:45.276Z,10.10
2023-05-04T00:15:15.913Z,9.57
2023-05-04T00:17:46.921Z,7.13
2023-05-04T00:20:17.434Z,6.10
2023-05-04T00:22:48.924Z,9.35
2023-05-04T00:25:23.003Z,6.43
2023-05-04T00:27:54.165Z,9.00
2023-05-04T00:30:25.571Z,8.50
2023-05-04T00:32:57.415Z,8.82
2023-05-04T00:35:28.922Z,10.55
2023-05-04T00:38:00.176Z,10.10
2023-05-04T00:40:31.296Z,8.88
2023-05-04T00:43:02.297Z,15.48
2023-05-04T00:45:34.202Z,8.07
2023-05-04T00:48:07.194Z,10.85
2023-05-04T00:50:38.764Z,8.43
2023-05-04T00:53:14.177Z,10.40
2023-05-04T00:55:45.351Z,11.82
2023-05-04T00:58:20.285Z,11.43
2023-05-04T01:00:52.377Z,11.55
2023-05-04T01:03:26.365Z,11.05
2023-05-04T01:06:10.584Z,15.43
2023-05-04T01:09:04.150Z,14.85
2023-05-04T01:11:58.045Z,14.73
2023-05-04T01:17:09.569Z,10.02
2023-05-04T01:19:42.926Z,12.60
2023-05-04T01:22:31.080Z,14.98
2023-05-04T01:25:07.642Z,15.45
2023-05-04T01:30:54.834Z,13.68
2023-05-04T01:33:37.952Z,15.98
2023-05-04T01:36:09.889Z,13.40
2023-05-04T01:38:42.313Z,10.95
2023-05-04T01:41:13.787Z,7.30
2023-05-04T01:43:51.429Z,4.55
2023-05-04T01:46:27.862Z,3.88
2023-05-04T01:48:58.293Z,3.28
2023-05-04T01:51:29.378Z,3.10
2023-05-04T01:54:01.273Z,3.08
2023-05-04T01:56:34.512Z,2.78
2023-05-04T01:59:05.872Z,2.72
2023-05-04T02:01:40.426Z,2.30
2023-05-04T02:04:10.723Z,2.35
2023-05-04T02:06:43.710Z,2.70
2023-05-04T02:09:17.011Z,13.15
2023-05-04T02:11:51.822Z,19.45
2023-05-04T02:14:23.210Z,15.10
2023-05-04T02:16:54.920Z,16.52
2023-05-04T02:19:28.122Z,20.63
2023-05-04T02:22:00.379Z,20.42
2023-05-04T02:24:31.521Z,16.15
2023-05-04T02:27:05.260Z,15.63
2023-05-04T02:29:43.458Z,13.32
2023-05-04T02:32:16.226Z,15.52
2023-05-04T02:34:48.187Z,13.20
2023-05-04T02:37:19.226Z,12.50
2023-05-04T02:39:49.346Z,11.02
2023-05-04T02:42:21.835Z,11.95
2023-05-04T02:45:00.969Z,14.18
2023-05-04T02:47:35.033Z,12.52
2023-05-04T02:50:08.548Z,12.73
2023-05-04T02:52:39.377Z,11.75
2023-05-04T02:55:09.730Z,10.38
2023-05-04T02:57:40.671Z,11.15
2023-05-04T03:00:11.642Z,10.32
2023-05-04T03:02:44.797Z,8.98
2023-05-04T03:05:16.159Z,6.75
2023-05-04T03:07:47.268Z,6.97
2023-05-04T03:10:20.846Z,5.43
2023-05-04T03:13:42.014Z,4.20
2023-05-04T03:16:16.401Z,3.45
2023-05-04T03:18:52.970Z,3.47
2023-05-04T03:21:23.854Z,3.90
2023-05-04T03:23:56.007Z,4.00
2023-05-04T03:26:29.191Z,3.67
2023-05-04T03:29:02.421Z,3.92
2023-05-04T03:31:33.998Z,4.10
2023-05-04T03:34:08.384Z,4.20
2023-05-04T03:36:42.324Z,4.20
2023-05-04T03:39:13.551Z,5.80
2023-05-04T03:41:47.451Z,7.28
2023-05-04T03:44:20.547Z,13.45
2023-05-04T03:46:51.800Z,16.42
2023-05-04T03:49:24.851Z,17.27
2023-05-04T03:51:58.651Z,17.05
2023-05-04T03:54:30.663Z,15.38
2023-05-04T03:57:03.972Z,16.83
2023-05-04T03:59:40.990Z,14.77
2023-05-04T04:02:13.143Z,14.35
2023-05-04T04:04:44.201Z,14.48
2023-05-04T04:07:16.024Z,14.05
2023-05-04T04:09:46.623Z,15.60
2023-05-04T04:12:20.002Z,11.35
2023-05-04T04:14:51.671Z,13.93
2023-05-04T04:17:22.920Z,17.70
2023-05-04T04:20:00.009Z,17.85
2023-05-04T04:22:33.051Z,16.45
2023-05-04T04:25:03.638Z,18.30
2023-05-04T04:27:34.806Z,18.83
2023-05-04T04:30:08.041Z,17.98
2023-05-04T04:32:39.653Z,18.92
2023-05-04T04:35:11.422Z,17.70
2023-05-04T04:37:43.977Z,15.20
2023-05-04T04:40:16.120Z,12.90
2023-05-04T04:42:47.175Z,14.43
2023-05-04T04:45:18.882Z,12.50
2023-05-04T04:47:50.474Z,14.35
2023-05-04T04:50:22.333Z,14.27
2023-05-04T04:52:52.488Z,12.98
2023-05-04T04:55:28.737Z,14.70
2023-05-04T04:57:58.896Z,15.98
2023-05-04T05:00:29.662Z,14.05
2023-05-04T05:03:01.441Z,14.80
2023-05-04T05:05:32.420Z,15.68
2023-05-04T05:08:04.399Z,13.35
2023-05-04T05:10:36.316Z,13.63
2023-05-04T05:13:10.036Z,16.70
2023-05-04T05:15:40.483Z,13.73
2023-05-04T05:18:11.300Z,18.42
2023-05-04T05:20:42.563Z,15.98
2023-05-04T05:23:12.838Z,16.73
2023-05-04T05:25:45.125Z,18.15
2023-05-04T05:28:18.924Z,18.42
2023-05-04T05:30:51.068Z,15.60
2023-05-04T05:33:25.952Z,15.52
2023-05-04T05:35:57.747Z,15.90
2023-05-04T05:38:29.787Z,17.63
2023-05-04T05:41:01.651Z,16.70
2023-05-04T05:43:32.544Z,14.85
2023-05-04T05:46:03.411Z,17.08
2023-05-04T05:48:34.857Z,18.75
2023-05-04T05:51:06.296Z,18.23
2023-05-04T05:53:37.254Z,16.25
2023-05-04T05:56:07.849Z,19.35
2023-05-04T05:59:02.213Z,19.05
2023-05-04T06:01:33.433Z,17.67
2023-05-04T06:04:10.951Z,20.27
2023-05-04T06:06:53.249Z,20.23
2023-05-04T06:09:24.281Z,21.70
2023-05-04T06:11:55.912Z,21.30
2023-05-04T06:14:27.516Z,21.17
2023-05-04T06:16:59.604Z,18.90
2023-05-04T06:19:31.574Z,19.80
2023-05-04T06:22:02.940Z,19.75
2023-05-04T06:24:36.692Z,18.27
2023-05-04T06:27:33.830Z,15.50
2023-05-04T06:30:07.347Z,18.25
2023-05-04T06:32:38.896Z,21.30
2023-05-04T06:35:11.266Z,19.92
2023-05-04T06:37:42.658Z,18.60
2023-05-04T06:40:13.805Z,18.00
2023-05-04T06:42:45.862Z,19.63
2023-05-04T06:45:16.016Z,19.58
2023-05-04T06:47:47.619Z,22.52
2023-05-04T06:50:19.459Z,19.92
2023-05-04T06:52:51.152Z,18.40
2023-05-04T06:55:22.353Z,17.95
2023-05-04T06:57:54.523Z,18.30
2023-05-04T07:00:27.104Z,19.02
2023-05-04T07:02:58.906Z,19.25
2023-05-04T07:05:30.981Z,20.00
2023-05-04T07:08:04.134Z,19.58
2023-05-04T07:10:35.843Z,20.48
2023-05-04T07:13:09.271Z,17.13
2023-05-04T07:15:42.104Z,15.90
2023-05-04T07:18:15.905Z,17.20
2023-05-04T07:20:47.709Z,17.02
2023-05-04T07:23:19.087Z,15.15
2023-05-04T07:25:51.925Z,14.82
2023-05-04T07:28:23.928Z,13.68
2023-05-04T07:30:54.630Z,11.77
2023-05-04T07:33:25.533Z,12.15
2023-05-04T07:36:03.581Z,10.90
2023-05-04T07:38:34.555Z,9.88
2023-05-04T07:41:06.654Z,9.90
2023-05-04T07:43:37.761Z,10.00
2023-05-04T07:46:08.920Z,9.60
2023-05-04T07:48:39.970Z,9.93
2023-05-04T07:51:16.351Z,9.18
2023-05-04T07:53:47.843Z,8.65
2023-05-04T07:56:24.823Z,8.25
2023-05-04T07:58:55.300Z,7.38
2023-05-04T08:01:26.118Z,7.88
2023-05-04T08:03:56.501Z,7.25
2023-05-04T08:06:27.278Z,7.47
2023-05-04T08:08:58.394Z,7.45
2023-05-04T08:11:29.732Z,6.25
2023-05-04T08:14:05.394Z,6.20
2023-05-04T08:16:38.306Z,6.50
2023-05-04T08:19:08.915Z,6.00
2023-05-04T08:21:39.936Z,6.90
2023-05-04T08:24:10.973Z,6.60
2023-05-04T08:26:43.752Z,5.97
2023-05-04T08:29:15.235Z,6.28
2023-05-04T08:31:47.810Z,6.28
2023-05-04T08:34:18.654Z,5.75
2023-05-04T08:36:51.970Z,5.63
2023-05-04T08:39:23.777Z,6.47
2023-05-04T08:41:55.375Z,6.20
2023-05-04T08:44:26.417Z,5.95
2023-05-04T08:46:58.687Z,6.30
2023-05-04T08:49:30.687Z,5.97
2023-05-04T08:52:03.078Z,5.28
2023-05-04T08:54:34.065Z,5.82
2023-05-04T08:57:07.213Z,6.68
2023-05-04T08:59:39.793Z,6.20
2023-05-04T09:02:16.365Z,6.20
2023-05-04T09:04:48.540Z,5.90
2023-05-04T09:07:25.014Z,5.88
2023-05-04T09:09:56.252Z,5.47
2023-05-04T09:12:29.927Z,5.82
2023-05-04T09:15:01.647Z,5.80
2023-05-04T09:17:32.603Z,6.00
2023-05-04T09:20:05.225Z,6.15
2023-05-04T09:22:46.951Z,6.63
2023-05-04T09:25:19.333Z,6.38
2023-05-04T09:27:57.806Z,6.07
2023-05-04T09:30:29.126Z,5.85
2023-05-04T09:33:01.011Z,6.05
2023-05-04T09:35:34.390Z,6.82
2023-05-04T09:38:07.448Z,6.57
2023-05-04T09:40:45.728Z,7.15
2023-05-04T09:43:17.615Z,6.85
2023-05-04T09:45:50.845Z,6.22
2023-05-04T09:48:31.069Z,5.20
2023-05-04T09:51:08.600Z,5.07
2023-05-04T09:53:42.382Z,5.57
2023-05-04T09:56:32.971Z,5.03
2023-05-04T09:59:05.393Z,5.30
2023-05-04T10:01:36.921Z,5.22
2023-05-04T10:04:09.947Z,4.90
2023-05-04T10:06:45.905Z,4.63
2023-05-04T10:09:17.380Z,4.97
2023-05-04T10:11:47.632Z,4.93
2023-05-04T10:14:18.370Z,5.22
2023-05-04T10:17:16.650Z,5.28
2023-05-04T10:20:07.717Z,4.93
2023-05-04T10:23:13.293Z,5.78
2023-05-04T10:26:15.929Z,5.25
2023-05-04T10:29:15.825Z,5.15
2023-05-04T10:31:47.370Z,4.95
2023-05-04T10:34:33.471Z,5.00
2023-05-04T10:37:07.764Z,5.07
2023-05-04T10:39:42.296Z,4.85
2023-05-04T10:42:12.610Z,5.07
2023-05-04T10:44:56.750Z,4.63
2023-05-04T10:47:38.624Z,5.38
2023-05-04T10:50:12.245Z,5.82
2023-05-04T10:52:59.543Z,5.40
2023-05-04T10:55:42.872Z,5.03
2023-05-04T10:58:17.671Z,5.03
2023-05-04T11:00:49.681Z,4.85
2023-05-04T11:03:20.663Z,5.25
2023-05-04T11:05:53.830Z,5.18
2023-05-04T11:08:27.228Z,5.78
2023-05-04T11:11:08.572Z,5.40
2023-05-04T11:16:16.506Z,5.60
2023-05-04T11:18:47.797Z,5.05
2023-05-04T11:21:30.646Z,5.32
2023-05-04T11:24:03.701Z,5.25
2023-05-04T11:26:33.949Z,5.25
2023-05-04T11:29:16.344Z,4.95
2023-05-04T11:31:57.993Z,4.78
2023-05-04T11:34:33.230Z,5.00
2023-05-04T11:37:08.774Z,4.88
2023-05-04T11:39:40.387Z,4.82
2023-05-04T11:42:11.133Z,4.80
2023-05-04T11:44:42.875Z,4.80
2023-05-04T11:47:15.386Z,4.90
2023-05-04T11:49:51.417Z,4.90
2023-05-04T11:52:30.218Z,5.13
2023-05-04T11:55:01.501Z,5.22
2023-05-04T11:57:34.032Z,5.15
2023-05-04T12:00:08.775Z,5.07
2023-05-04T12:02:40.505Z,5.25
2023-05-04T12:05:16.406Z,5.45
2023-05-04T12:07:59.200Z,5.60
2023-05-04T12:10:37.278Z,5.22
2023-05-04T12:13:19.452Z,5.15
2023-05-04T12:15:51.295Z,5.22
2023-05-04T12:18:31.751Z,5.15
2023-05-04T12:21:11.720Z,5.28
2023-05-04T12:23:43.291Z,4.75
2023-05-04T12:26:17.302Z,5.18
2023-05-04T12:28:49.787Z,4.95
2023-05-04T12:31:21.324Z,18.83
2023-05-04T12:34:15.383Z,21.50
2023-05-04T12:36:46.564Z,9.18
2023-05-04T12:39:20.345Z,5.72
2023-05-04T12:41:51.544Z,5.13
2023-05-04T12:44:25.598Z,4.75
2023-05-04T12:47:00.004Z,9.10
2023-05-04T12:49:31.007Z,5.28
2023-05-04T12:52:06.153Z,5.57
2023-05-04T12:54:39.719Z,14.77
2023-05-04T12:57:12.938Z,25.42
2023-05-04T12:59:44.473Z,20.33
2023-05-04T13:02:16.392Z,20.05
2023-05-04T13:04:47.988Z,16.08
2023-05-04T13:07:19.873Z,19.30
2023-05-04T13:09:51.852Z,18.90
2023-05-04T13:12:23.832Z,15.27
2023-05-04T13:14:58.007Z,15.45
2023-05-04T13:17:31.754Z,14.02
2023-05-04T13:20:07.712Z,16.17
2023-05-04T13:22:39.761Z,12.00
2023-05-04T13:25:11.218Z,10.77
2023-05-04T13:27:43.147Z,11.43
2023-05-04T13:30:15.921Z,12.60
2023-05-04T13:32:47.138Z,15.00
2023-05-04T13:35:17.866Z,11.95
2023-05-04T13:37:49.553Z,16.48
2023-05-04T13:40:20.740Z,11.23
2023-05-04T13:42:51.809Z,13.05
2023-05-04T13:45:23.516Z,12.52
2023-05-04T13:47:55.704Z,15.68
2023-05-04T13:50:27.823Z,19.27
2023-05-04T13:53:06.597Z,20.92
2023-05-04T13:55:40.650Z,14.65
2023-05-04T13:58:11.523Z,15.80
2023-05-04T14:00:42.947Z,17.17
2023-05-04T14:03:14.124Z,14.25
2023-05-04T14:05:44.774Z,13.30
2023-05-04T14:08:16.613Z,17.83
2023-05-04T14:10:47.953Z,14.02
2023-05-04T14:13:19.682Z,14.55
2023-05-04T14:15:51.739Z,16.27
2023-05-04T14:18:23.242Z,13.73
2023-05-04T14:20:55.611Z,15.90
2023-05-04T14:23:26.532Z,16.33
2023-05-04T14:25:59.704Z,12.77
2023-05-04T14:28:31.471Z,15.50
2023-05-04T14:31:10.005Z,15.30
2023-05-04T14:33:44.173Z,11.85
2023-05-04T14:36:15.365Z,10.77
2023-05-04T14:38:45.580Z,9.63
2023-05-04T14:41:16.091Z,10.02
2023-05-04T14:43:46.476Z,11.07
2023-05-04T14:46:16.867Z,12.52
2023-05-04T14:48:48.098Z,14.38
2023-05-04T14:51:26.075Z,9.73
2023-05-04T14:53:57.018Z,9.38
2023-05-04T14:56:29.748Z,11.75
2023-05-04T14:59:03.333Z,11.10
2023-05-04T15:01:34.035Z,9.82
2023-05-04T15:04:05.979Z,6.35
2023-05-04T15:06:40.386Z,10.43
2023-05-04T15:09:11.616Z,13.00
2023-05-04T15:11:43.246Z,9.30
2023-05-04T15:14:13.920Z,11.20
2023-05-04T15:16:44.753Z,10.90
2023-05-04T15:19:16.502Z,15.07
2023-05-04T15:21:48.259Z,11.88
2023-05-04T15:24:20.555Z,11.13
2023-05-04T15:26:51.384Z,14.27
2023-05-04T15:29:22.404Z,13.68
2023-05-04T15:32:01.005Z,16.50
2023-05-04T15:34:32.700Z,11.98
2023-05-04T15:37:06.637Z,11.25
2023-05-04T15:39:38.745Z,14.52
2023-05-04T15:42:10.197Z,11.07
2023-05-04T15:44:41.383Z,15.15
2023-05-04T15:47:15.222Z,14.15
2023-05-04T15:49:46.466Z,10.20
2023-05-04T15:52:17.914Z,11.60
2023-05-04T15:54:50.242Z,11.50
2023-05-04T15:57:21.736Z,10.30
2023-05-04T15:59:52.699Z,13.18
2023-05-04T16:02:23.757Z,13.13
2023-05-04T16:04:55.359Z,9.77
2023-05-04T16:07:26.750Z,10.73
2023-05-04T16:09:57.837Z,12.75
2023-05-04T16:12:28.790Z,11.00
2023-05-04T16:15:01.541Z,16.85
2023-05-04T16:17:37.854Z,12.95
2023-05-04T16:20:09.688Z,14.20
2023-05-04T16:22:40.468Z,13.77
2023-05-04T16:25:11.558Z,16.80
2023-05-04T16:27:43.824Z,13.23
2023-05-04T16:30:17.875Z,15.93
2023-05-04T16:32:48.984Z,13.93
2023-05-04T16:35:20.248Z,12.18
2023-05-04T16:37:51.001Z,16.35
2023-05-04T16:40:21.997Z,15.38
2023-05-04T16:42:53.205Z,13.65
2023-05-04T16:45:27.529Z,10.60
2023-05-04T16:47:59.599Z,15.05
2023-05-04T16:50:30.924Z,18.30
2023-05-04T16:53:01.888Z,11.57
2023-05-04T16:55:32.964Z,15.38
2023-05-04T16:58:03.900Z,13.82
2023-05-04T17:00:34.186Z,12.95
2023-05-04T17:03:05.507Z,15.45
2023-05-04T17:05:37.540Z,12.57
2023-05-04T17:08:10.045Z,14.10
2023-05-04T17:10:42.079Z,7.90
2023-05-04T17:13:16.972Z,14.25
2023-05-04T17:15:48.299Z,9.93
2023-05-04T17:18:20.582Z,13.38
2023-05-04T17:20:52.156Z,11.27
2023-05-04T17:23:23.365Z,11.60
2023-05-04T17:25:54.769Z,17.35
2023-05-04T17:28:25.391Z,12.75
2023-05-04T17:30:56.933Z,8.35
2023-05-04T17:33:28.159Z,5.05
2023-05-04T17:35:59.834Z,11.15
2023-05-04T17:38:31.668Z,8.00
2023-05-04T17:41:02.978Z,8.02
2023-05-04T17:43:35.823Z,9.38
2023-05-04T17:46:07.137Z,10.90
2023-05-04T17:48:38.887Z,7.88
2023-05-04T17:51:12.438Z,12.15
2023-05-04T17:53:45.447Z,8.15
2023-05-04T17:56:18.687Z,10.02
2023-05-04T17:58:48.975Z,9.20
2023-05-04T18:01:20.518Z,11.23
2023-05-04T18:03:51.454Z,8.55
2023-05-04T18:06:22.843Z,10.18
2023-05-04T18:08:55.127Z,9.85
2023-05-04T18:11:25.357Z,12.55
2023-05-04T18:13:58.667Z,12.45
2023-05-04T18:16:31.304Z,15.88
2023-05-04T18:19:01.886Z,15.68
2023-05-04T18:21:35.391Z,15.52
2023-05-04T18:24:06.462Z,15.05
2023-05-04T18:26:37.899Z,18.30
2023-05-04T18:29:18.358Z,15.25
2023-05-04T18:31:52.447Z,16.30
2023-05-04T18:34:23.554Z,11.77
2023-05-04T18:36:54.580Z,11.75
2023-05-04T18:39:24.652Z,7.93
2023-05-04T18:41:55.762Z,10.07
2023-05-04T18:44:26.757Z,8.15
2023-05-04T18:46:57.552Z,13.75
2023-05-04T18:49:35.402Z,14.05
2023-05-04T18:52:06.912Z,15.60
2023-05-04T18:54:39.153Z,14.38
2023-05-04T18:57:15.668Z,13.35
2023-05-04T18:59:47.434Z,8.40
2023-05-04T19:02:18.310Z,6.90
2023-05-04T19:04:49.358Z,11.15
2023-05-04T19:07:20.765Z,13.20
2023-05-04T19:09:50.815Z,9.00
2023-05-04T19:12:21.350Z,13.77
2023-05-04T19:14:54.067Z,11.88
2023-05-04T19:17:25.841Z,9.77
2023-05-04T19:19:59.930Z,11.23
2023-05-04T19:22:31.205Z,14.57
2023-05-04T19:25:01.514Z,13.38
2023-05-04T19:27:32.150Z,9.73
2023-05-04T19:30:04.543Z,10.60
2023-05-04T19:32:35.518Z,13.13
2023-05-04T19:35:05.649Z,13.93
2023-05-04T19:37:39.232Z,11.38
2023-05-04T19:40:12.364Z,20.05
2023-05-04T19:42:48.565Z,16.88
2023-05-04T19:45:20.012Z,8.40
2023-05-04T19:47:52.728Z,14.05
2023-05-04T19:50:23.919Z,14.15
2023-05-04T19:52:54.365Z,11.57
2023-05-04T19:55:26.126Z,13.02
2023-05-04T19:57:58.156Z,14.30
2023-05-04T20:00:28.678Z,13.15
2023-05-04T20:02:58.752Z,11.52
2023-05-04T20:05:29.838Z,8.70
2023-05-04T20:08:02.119Z,16.77
2023-05-04T20:10:35.162Z,17.52
2023-05-04T20:13:05.587Z,9.07
2023-05-04T20:15:36.461Z,13.05
2023-05-04T20:18:08.261Z,14.40
2023-05-04T20:20:39.302Z,13.85
2023-05-04T20:23:10.793Z,12.77
2023-05-04T20:25:43.330Z,19.98
2023-05-04T20:28:14.945Z,16.17
2023-05-04T20:30:48.965Z,10.27
2023-05-04T20:33:20.775Z,12.55
2023-05-04T20:35:51.254Z,16.27
2023-05-04T20:38:22.058Z,10.02
2023-05-04T20:40:53.473Z,13.52
2023-05-04T20:43:24.699Z,18.77
2023-05-04T20:45:54.856Z,22.83
2023-05-04T20:48:27.929Z,17.38
2023-05-04T20:51:13.535Z,20.58
2023-05-04T20:53:44.948Z,13.75
2023-05-04T20:56:16.777Z,21.25
2023-05-04T20:58:47.266Z,13.57
2023-05-04T21:01:18.581Z,17.15
2023-05-04T21:03:52.202Z,14.88
2023-05-04T21:06:26.684Z,15.32
2023-05-04T21:08:57.145Z,25.08
2023-05-04T21:11:28.497Z,22.30
2023-05-04T21:13:59.796Z,21.60
2023-05-04T21:16:31.725Z,20.92
2023-05-04T21:19:02.285Z,21.88
2023-05-04T21:21:37.033Z,22.35
2023-05-04T21:24:09.442Z,25.02
2023-05-04T21:26:40.410Z,21.55
2023-05-04T21:29:16.216Z,20.38
2023-05-04T21:31:49.570Z,19.73
2023-05-04T21:34:20.307Z,20.30
2023-05-04T21:36:51.544Z,17.40
2023-05-04T21:39:24.940Z,11.32
2023-05-04T21:41:55.971Z,11.93
2023-05-04T21:44:27.706Z,17.27
2023-05-04T21:46:58.186Z,20.35
2023-05-04T21:49:29.692Z,18.05
2023-05-04T21:52:00.170Z,16.00
2023-05-04T21:54:30.943Z,20.13
2023-05-04T21:57:02.130Z,18.58
2023-05-04T21:59:33.377Z,22.75
2023-05-04T22:02:05.533Z,21.17
2023-05-04T22:04:35.770Z,16.00
2023-05-04T22:07:07.925Z,24.00
2023-05-04T22:09:39.759Z,16.65
2023-05-04T22:12:10.814Z,18.25
2023-05-04T22:14:42.878Z,16.30
2023-05-04T22:17:14.986Z,21.45
2023-05-04T22:19:46.894Z,18.80
2023-05-04T22:22:18.404Z,21.75
2023-05-04T22:24:49.413Z,21.13
2023-05-04T22:27:19.921Z,23.10
2023-05-04T22:29:53.339Z,20.05
2023-05-04T22:32:23.656Z,18.30
2023-05-04T22:34:53.729Z,21.75
2023-05-04T22:37:25.191Z,19.88
2023-05-04T22:39:56.502Z,19.35
2023-05-04T22:42:27.935Z,17.10
2023-05-04T22:45:00.257Z,18.75
2023-05-04T22:47:32.664Z,16.13
2023-05-04T22:50:04.210Z,16.40
2023-05-04T22:52:35.681Z,13.43
2023-05-04T22:55:06.210Z,13.68
2023-05-04T22:57:37.406Z,11.00
2023-05-04T23:00:09.726Z,10.57
2023-05-04T23:02:41.352Z,8.00
2023-05-04T23:05:12.878Z,8.52
2023-05-04T23:07:44.567Z,8.35
2023-05-04T23:10:16.022Z,8.10
2023-05-04T23:12:48.129Z,8.95
2023-05-04T23:15:19.632Z,7.53
2023-05-04T23:17:50.851Z,7.78
2023-05-04T23:20:22.160Z,7.82
2023-05-04T23:22:54.025Z,6.28
2023-05-04T23:25:24.987Z,5.97
2023-05-04T23:27:57.656Z,5.93
2023-05-04T23:30:29.445Z,6.57
2023-05-04T23:33:00.918Z,4.57
2023-05-04T23:35:32.574Z,4.18
2023-05-04T23:38:03.173Z,3.58
2023-05-04T23:40:40.077Z,3.40
2023-05-04T23:43:11.945Z,3.00
2023-05-04T23:45:43.430Z,3.03
2023-05-04T23:48:15.205Z,3.13
2023-05-04T23:51:03.754Z,2.40
2023-05-04T23:53:40.407Z,2.55
2023-05-04T23:56:17.198Z,2.58
2023-05-04T23:58:48.809Z,1.90
